Time;durP1;ratioP1;P1;durP2;ratioP2;P2;SDS_P1;SDS_P2;PMS_P1;PMS_P2;Temp;Humidity;BMP_temperature;BMP_pressure;BME280_temperature;BME280_humidity;BME280_pressure;Samples;Min_cycle;Max_cycle;Signal;HPM_P1;HPM_P2
2022/11/19 00:01:15;;;;;;;24.45;17.85;;;;;;;5.12;100.00;100614.81;4969818;28;20031;-63
2022/11/19 00:03:41;;;;;;;24.27;18.15;;;;;;;5.10;100.00;100624.13;4970127;28;20383;-63
2022/11/19 00:06:10;;;;;;;24.98;18.15;;;;;;;5.03;100.00;100618.69;4969873;28;20058;-62
2022/11/19 00:08:36;;;;;;;22.55;18.08;;;;;;;5.01;100.00;100617.72;4969707;28;20256;-63
2022/11/19 00:14:11;;;;;;;26.05;18.80;;;;;;;4.97;100.00;100627.75;4967623;28;20169;-63
2022/11/19 00:16:36;;;;;;;25.65;18.65;;;;;;;4.85;100.00;100620.28;4950400;28;20027;-63
2022/11/19 00:19:01;;;;;;;25.35;18.30;;;;;;;4.85;100.00;100630.56;4951278;28;20383;-63
2022/11/19 00:21:27;;;;;;;23.33;18.98;;;;;;;4.83;100.00;100632.16;4953482;28;20038;-63
2022/11/19 00:23:53;;;;;;;24.90;18.95;;;;;;;4.84;100.00;100632.25;4951416;28;20035;-63
2022/11/19 00:26:19;;;;;;;23.98;19.25;;;;;;;4.82;100.00;100633.88;4959965;28;20049;-63
2022/11/19 00:28:44;;;;;;;23.48;19.23;;;;;;;4.78;100.00;100632.84;4953984;28;20059;-63
2022/11/19 00:31:11;;;;;;;23.23;19.15;;;;;;;4.78;100.00;100634.50;4950400;28;20031;-63
2022/11/19 00:33:38;;;;;;;24.80;17.90;;;;;;;4.76;100.00;100631.84;4950813;28;20027;-63
2022/11/19 00:36:06;;;;;;;22.97;17.63;;;;;;;4.68;100.00;100639.16;4950869;28;20094;-63
2022/11/19 00:38:31;;;;;;;21.27;16.50;;;;;;;4.65;100.00;100639.00;4949904;28;20037;-63
2022/11/19 00:40:56;;;;;;;23.55;16.75;;;;;;;4.64;100.00;100638.91;4950771;28;20175;-63
2022/11/19 00:46:06;;;;;;;21.40;17.37;;;;;;;4.53;100.00;100654.59;4953171;28;20034;-63
2022/11/19 00:48:32;;;;;;;22.23;17.20;;;;;;;4.48;100.00;100656.03;4972251;28;20395;-62
2022/11/19 00:50:57;;;;;;;22.57;17.60;;;;;;;4.43;100.00;100654.91;4950366;28;20019;-63
2022/11/19 00:53:23;;;;;;;24.40;18.10;;;;;;;4.39;100.00;100650.44;4950227;28;20502;-63
2022/11/19 00:55:48;;;;;;;24.03;17.80;;;;;;;4.35;100.00;100658.75;4950334;28;20156;-63
2022/11/19 00:58:13;;;;;;;22.27;17.77;;;;;;;4.34;100.00;100663.00;4964995;28;20039;-62
2022/11/19 01:00:39;;;;;;;25.33;19.40;;;;;;;4.32;100.00;100659.47;4949764;28;20046;-63
2022/11/19 01:03:05;;;;;;;24.80;19.73;;;;;;;4.24;100.00;100664.19;4950450;28;20023;-63
2022/11/19 01:05:30;;;;;;;26.97;20.37;;;;;;;4.22;100.00;100660.66;4963079;28;20082;-63
2022/11/19 01:07:55;;;;;;;28.70;20.42;;;;;;;4.20;100.00;100670.84;4949875;28;20082;-63
2022/11/19 01:10:21;;;;;;;25.67;20.67;;;;;;;4.22;100.00;100663.22;4950113;28;20042;-63
2022/11/19 01:15:30;;;;;;;26.20;21.23;;;;;;;4.00;100.00;100667.16;4950499;28;20054;-63
2022/11/19 01:17:55;;;;;;;23.43;20.30;;;;;;;4.00;100.00;100674.84;4950224;28;20467;-63
2022/11/19 01:20:20;;;;;;;30.70;22.40;;;;;;;3.97;100.00;100675.53;4949368;28;20157;-63
2022/11/19 01:22:46;;;;;;;29.87;21.90;;;;;;;3.97;100.00;100672.97;4949405;28;20027;-63
2022/11/19 01:25:13;;;;;;;32.07;22.57;;;;;;;3.97;100.00;100672.97;4962716;28;20045;-63
2022/11/19 01:27:38;;;;;;;31.30;22.53;;;;;;;3.97;100.00;100678.09;4950239;28;20691;-63
2022/11/19 01:30:04;;;;;;;27.33;21.03;;;;;;;3.92;100.00;100686.34;4949728;28;20110;-62
2022/11/19 01:32:29;;;;;;;27.83;20.90;;;;;;;3.89;100.00;100688.72;4949817;28;20394;-63
2022/11/19 01:34:55;;;;;;;28.77;22.10;;;;;;;3.92;100.00;100688.91;4949175;28;20494;-63
2022/11/19 01:37:20;;;;;;;26.57;21.00;;;;;;;3.91;100.00;100688.03;4949664;28;20533;-63
2022/11/19 01:39:45;;;;;;;27.33;21.43;;;;;;;3.90;100.00;100701.66;4949541;28;20027;-62
2022/11/19 01:42:48;;;;;;;28.10;21.20;;;;;;;3.88;100.00;100697.22;4950009;28;20031;-63
2022/11/19 01:45:17;;;;;;;29.13;22.73;;;;;;;3.88;100.00;100704.91;4949244;28;20046;-63
2022/11/19 01:47:42;;;;;;;27.67;22.87;;;;;;;3.92;100.00;100712.00;4949116;28;20054;-62
2022/11/19 01:50:07;;;;;;;25.07;20.43;;;;;;;3.90;100.00;100700.75;4949009;28;20024;-62
2022/11/19 01:52:33;;;;;;;26.87;20.33;;;;;;;3.81;100.00;100709.69;4949333;28;20167;-63
2022/11/19 01:54:58;;;;;;;23.93;19.77;;;;;;;3.82;100.00;100711.47;4949141;28;20427;-63
2022/11/19 01:57:23;;;;;;;23.20;19.00;;;;;;;3.81;100.00;100712.25;4954423;28;20078;-63
2022/11/19 01:59:50;;;;;;;24.97;20.17;;;;;;;3.82;100.00;100718.25;4969183;28;20029;-63
2022/11/19 02:02:18;;;;;;;25.83;20.03;;;;;;;3.81;100.00;100716.50;4950119;28;20023;-63
2022/11/19 02:04:44;;;;;;;22.70;18.63;;;;;;;3.79;100.00;100713.84;4961503;28;20487;-62
2022/11/19 02:07:11;;;;;;;24.37;19.40;;;;;;;3.74;100.00;100717.84;4949694;28;20030;-63
2022/11/19 02:09:37;;;;;;;24.97;18.67;;;;;;;3.75;100.00;100726.38;4949492;28;20062;-63
2022/11/19 02:12:15;;;;;;;23.50;19.40;;;;;;;3.76;100.00;100720.50;4958197;28;20030;-63
2022/11/19 02:15:37;;;;;;;23.63;18.33;;;;;;;3.74;100.00;100725.53;4948206;28;20039;-62
2022/11/19 02:18:29;;;;;;;24.13;19.57;;;;;;;3.74;100.00;100722.97;4961167;28;20042;-63
2022/11/19 02:21:15;;;;;;;20.60;18.20;;;;;;;3.75;100.00;100727.28;4961398;28;20542;-62
2022/11/19 02:24:15;;;;;;;22.37;17.63;;;;;;;3.73;100.00;100728.88;4969566;28;20388;-63
2022/11/19 02:27:06;;;;;;;19.57;15.67;;;;;;;3.65;100.00;100736.09;4952372;28;20033;-62
2022/11/19 02:29:31;;;;;;;17.52;14.93;;;;;;;3.56;100.00;100730.47;4952637;28;20118;-62
2022/11/19 02:32:08;;;;;;;17.97;15.20;;;;;;;3.45;100.00;100734.94;4951940;28;20117;-63
2022/11/19 02:34:43;;;;;;;19.00;14.80;;;;;;;3.43;100.00;100729.75;4952096;28;20042;-61
2022/11/19 02:37:40;;;;;;;15.70;14.10;;;;;;;3.44;100.00;100733.16;4952549;28;20027;-63
2022/11/19 02:40:15;;;;;;;17.00;13.37;;;;;;;3.39;100.00;100734.56;4954763;28;20380;-62
2022/11/19 02:42:48;;;;;;;15.37;13.73;;;;;;;3.39;100.00;100734.56;4952657;28;20434;-62
2022/11/19 02:45:25;;;;;;;18.57;14.43;;;;;;;3.40;100.00;100733.78;4952757;28;20357;-63
2022/11/19 02:47:55;;;;;;;16.77;13.70;;;;;;;3.35;100.00;100733.50;4950222;28;20062;-62
2022/11/19 02:50:35;;;;;;;17.15;13.77;;;;;;;3.24;100.00;100743.09;4957545;28;20023;-62
2022/11/19 02:53:02;;;;;;;15.27;12.47;;;;;;;3.25;100.00;100739.75;4971300;28;20027;-63
2022/11/19 02:55:28;;;;;;;15.40;13.13;;;;;;;3.16;100.00;100741.75;4964059;28;20550;-62
2022/11/19 02:57:59;;;;;;;15.03;12.63;;;;;;;3.04;100.00;100740.22;4952098;28;20035;-63
2022/11/19 03:06:09;;;;;;;16.23;12.93;;;;;;;2.92;100.00;100749.69;4952374;28;20039;-62
2022/11/19 03:08:35;;;;;;;14.43;12.93;;;;;;;2.86;100.00;100750.22;4952242;28;20031;-62
2022/11/19 03:11:21;;;;;;;14.70;13.17;;;;;;;2.80;100.00;100753.28;4951524;28;20074;-62
2022/11/19 03:17:20;;;;;;;16.20;13.87;;;;;;;2.68;100.00;100757.63;4952243;28;20066;-62
2022/11/19 03:20:14;;;;;;;15.70;13.57;;;;;;;2.69;100.00;100761.97;4952100;28;20027;-63
2022/11/19 03:22:48;;;;;;;16.57;14.87;;;;;;;2.71;100.00;100768.06;4950715;28;20035;-62
2022/11/19 03:25:26;;;;;;;17.10;14.80;;;;;;;2.66;100.00;100761.78;4951968;28;20467;-62
2022/11/19 03:27:58;;;;;;;18.97;16.10;;;;;;;2.64;100.00;100767.66;4952315;28;20035;-63
2022/11/19 03:30:23;;;;;;;16.17;14.27;;;;;;;2.63;100.00;100767.56;4952066;28;20502;-62
2022/11/19 03:33:14;;;;;;;18.73;15.53;;;;;;;2.62;100.00;100769.25;4958887;28;20113;-61
2022/11/19 03:35:49;;;;;;;16.83;14.23;;;;;;;2.61;100.00;100770.03;4953113;28;20102;-62
2022/11/19 03:38:21;;;;;;;18.13;15.70;;;;;;;2.58;100.00;100769.84;4950598;28;20037;-62
2022/11/19 03:40:48;;;;;;;18.15;14.88;;;;;;;2.61;100.00;100770.03;4951745;28;20074;-63
2022/11/19 03:43:17;;;;;;;18.03;15.37;;;;;;;2.59;100.00;100766.47;4951654;28;20491;-62
2022/11/19 03:45:44;;;;;;;17.83;15.47;;;;;;;2.57;100.00;100768.09;4951502;28;20027;-62
2022/11/19 03:48:14;;;;;;;19.40;15.97;;;;;;;2.58;100.00;100768.94;4951944;28;20137;-62
2022/11/19 03:51:25;;;;;;;20.07;16.00;;;;;;;2.59;100.00;100773.31;4952302;28;20227;-62
2022/11/19 03:53:50;;;;;;;18.80;16.37;;;;;;;2.61;100.00;100772.59;4951996;28;20066;-62
2022/11/19 03:56:20;;;;;;;20.93;16.53;;;;;;;2.59;100.00;100775.84;4953068;28;20039;-63
2022/11/19 03:58:46;;;;;;;21.37;16.73;;;;;;;2.61;100.00;100781.94;4963295;28;20550;-62
2022/11/19 04:01:12;;;;;;;20.87;16.90;;;;;;;2.52;100.00;100780.56;4951116;28;20372;-62
2022/11/19 04:03:37;;;;;;;20.07;16.10;;;;;;;2.54;100.00;100783.22;4951325;28;20031;-62
2022/11/19 04:06:04;;;;;;;21.23;16.17;;;;;;;2.48;100.00;100782.84;4950103;28;20114;-63
2022/11/19 04:08:29;;;;;;;20.07;16.83;;;;;;;2.47;100.00;100781.94;4952181;28;20035;-62
2022/11/19 04:10:56;;;;;;;20.20;16.57;;;;;;;2.48;100.00;100782.84;4950509;28;20042;-62
2022/11/19 04:13:22;;;;;;;22.83;18.87;;;;;;;2.47;100.00;100786.19;4951091;28;20031;-63
2022/11/19 04:15:47;;;;;;;22.60;17.97;;;;;;;2.42;100.00;100787.56;4952231;28;20098;-63
2022/11/19 04:18:12;;;;;;;25.57;19.47;;;;;;;2.33;100.00;100782.72;4958041;28;20023;-62
2022/11/19 04:20:37;;;;;;;24.20;19.30;;;;;;;2.22;100.00;100798.28;4950976;28;20031;-63
2022/11/19 04:23:03;;;;;;;24.40;19.47;;;;;;;2.18;100.00;100792.88;4950890;28;20113;-62
2022/11/19 04:25:28;;;;;;;21.10;17.20;;;;;;;2.19;100.00;100798.06;4950808;28;20027;-62
2022/11/19 04:27:53;;;;;;;23.93;18.07;;;;;;;2.19;100.00;100810.88;4950966;28;20319;-63
2022/11/19 04:30:19;;;;;;;23.53;18.07;;;;;;;2.21;100.00;100808.41;4950178;28;20034;-63
2022/11/19 04:32:44;;;;;;;24.70;19.47;;;;;;;2.22;100.00;100815.28;4950887;28;20038;-63
2022/11/19 04:35:10;;;;;;;23.00;19.00;;;;;;;2.23;100.00;100819.63;4951005;28;20456;-62
2022/11/19 04:37:35;;;;;;;23.37;19.80;;;;;;;2.23;100.00;100828.16;4950844;28;20479;-63
2022/11/19 04:40:01;;;;;;;23.77;18.70;;;;;;;2.20;100.00;100827.06;4949949;28;20063;-63
2022/11/19 04:42:26;;;;;;;22.53;18.40;;;;;;;2.18;100.00;100824.41;4949933;28;20421;-62
2022/11/19 04:44:51;;;;;;;23.60;19.03;;;;;;;2.18;100.00;100823.56;4950307;28;20031;-63
2022/11/19 04:47:17;;;;;;;22.47;18.60;;;;;;;2.16;100.00;100821.75;4949979;28;20038;-63
2022/11/19 04:49:42;;;;;;;25.27;19.53;;;;;;;2.18;100.00;100826.09;4949697;28;20039;-63
2022/11/19 04:52:07;;;;;;;25.53;19.77;;;;;;;2.17;100.00;100825.22;4950803;28;20019;-62
2022/11/19 04:54:33;;;;;;;25.77;19.87;;;;;;;2.18;100.00;100821.00;4950240;28;20035;-62
2022/11/19 04:56:58;;;;;;;24.03;19.50;;;;;;;2.15;100.00;100830.22;4950193;28;20034;-63
2022/11/19 04:59:23;;;;;;;24.93;19.97;;;;;;;2.03;100.00;100830.28;4949941;28;20038;-63
2022/11/19 05:01:49;;;;;;;27.17;21.03;;;;;;;2.03;100.00;100825.16;4950069;28;20494;-62
2022/11/19 05:04:14;;;;;;;26.97;20.60;;;;;;;1.92;100.00;100829.56;4949506;28;20015;-63
2022/11/19 05:06:39;;;;;;;26.07;20.40;;;;;;;1.88;100.00;100830.16;4949562;28;20027;-63
2022/11/19 05:09:05;;;;;;;25.67;19.53;;;;;;;1.87;100.00;100838.59;4950562;28;20490;-63
2022/11/19 05:11:30;;;;;;;25.07;19.87;;;;;;;1.88;100.00;100835.28;4950050;28;20081;-63
2022/11/19 05:13:55;;;;;;;23.10;20.10;;;;;;;1.88;100.00;100840.38;4950198;28;20034;-63
2022/11/19 05:16:20;;;;;;;27.80;21.93;;;;;;;1.90;100.00;100843.94;4949618;28;20486;-63
2022/11/19 05:18:46;;;;;;;26.53;21.43;;;;;;;1.94;100.00;100844.13;4949890;28;20211;-63
2022/11/19 05:21:11;;;;;;;26.77;20.20;;;;;;;1.95;100.00;100848.44;4948585;28;20046;-62
2022/11/19 05:23:36;;;;;;;25.03;19.93;;;;;;;1.96;100.00;100861.31;4949725;28;20390;-63
2022/11/19 05:26:02;;;;;;;25.23;20.67;;;;;;;1.95;100.00;100867.25;4949577;28;20027;-63
2022/11/19 05:28:27;;;;;;;27.57;21.83;;;;;;;1.92;100.00;100862.78;4949317;28;20027;-62
2022/11/19 05:30:53;;;;;;;25.63;20.63;;;;;;;1.89;100.00;100866.84;4949403;28;20019;-63
2022/11/19 05:33:18;;;;;;;26.77;21.43;;;;;;;1.87;100.00;100869.25;4949390;28;20035;-62
2022/11/19 05:35:44;;;;;;;28.33;22.33;;;;;;;1.83;100.00;100874.97;4950366;28;20165;-63
2022/11/19 05:38:09;;;;;;;26.20;21.23;;;;;;;1.82;100.00;100875.72;4949752;28;20356;-63
2022/11/19 05:40:34;;;;;;;27.87;21.60;;;;;;;1.82;100.00;100877.44;4949894;28;20019;-62
2022/11/19 05:43:06;;;;;;;24.87;20.80;;;;;;;1.79;100.00;100870.44;4949014;28;20031;-62
2022/11/19 05:45:32;;;;;;;29.47;22.33;;;;;;;1.78;100.00;100881.44;4956348;28;20120;-63
2022/11/19 05:47:57;;;;;;;25.87;21.97;;;;;;;1.78;100.00;100886.56;4958769;28;20062;-63
2022/11/19 05:50:22;;;;;;;25.10;21.30;;;;;;;1.75;100.00;100879.53;4952507;28;20066;-62
2022/11/19 05:52:48;;;;;;;27.20;20.63;;;;;;;1.70;100.00;100869.78;4949302;28;20114;-62
2022/11/19 05:55:13;;;;;;;27.97;22.03;;;;;;;1.64;100.00;100871.13;4952883;28;20041;-63
2022/11/19 05:57:38;;;;;;;27.03;21.67;;;;;;;1.62;100.00;100864.16;4954371;28;20073;-62
2022/11/19 06:00:04;;;;;;;27.03;22.03;;;;;;;1.65;100.00;100880.59;4961389;28;20026;-63
2022/11/19 06:02:30;;;;;;;28.80;22.93;;;;;;;1.67;100.00;100880.69;4954075;28;20517;-62
2022/11/19 06:04:55;;;;;;;27.70;23.80;;;;;;;1.70;100.00;100888.56;4953331;28;20105;-62
2022/11/19 06:07:20;;;;;;;28.63;23.03;;;;;;;1.68;100.00;100892.69;4954931;28;20102;-62
2022/11/19 06:09:46;;;;;;;26.90;21.93;;;;;;;1.70;100.00;100895.34;4952860;28;20078;-62
2022/11/19 06:12:11;;;;;;;28.87;23.57;;;;;;;1.71;100.00;100899.69;4955973;28;20498;-63
2022/11/19 06:14:36;;;;;;;27.73;23.07;;;;;;;1.72;100.00;100892.13;4952680;28;20030;-62
2022/11/19 06:17:02;;;;;;;27.50;22.83;;;;;;;1.75;100.00;100893.97;4957355;28;20061;-62
2022/11/19 06:19:27;;;;;;;27.53;23.00;;;;;;;1.75;100.00;100905.09;4954183;28;20033;-62
2022/11/19 06:21:53;;;;;;;28.93;23.07;;;;;;;1.78;100.00;100919.78;4960059;28;20027;-62
2022/11/19 06:24:19;;;;;;;28.03;22.67;;;;;;;1.68;100.00;100919.13;4955590;28;20041;-62
2022/11/19 06:26:45;;;;;;;30.23;23.80;;;;;;;1.72;100.00;100920.22;4955289;28;20123;-62
2022/11/19 06:29:13;;;;;;;32.57;24.13;;;;;;;1.68;100.00;100928.44;4953939;28;20015;-63
2022/11/19 06:31:38;;;;;;;33.13;25.37;;;;;;;1.67;100.00;100932.66;4955148;28;20110;-63
2022/11/19 06:34:03;;;;;;;30.97;25.40;;;;;;;1.65;100.00;100944.47;4955877;28;20035;-62
2022/11/19 06:36:29;;;;;;;33.73;26.50;;;;;;;1.61;100.00;100945.03;4955155;28;20035;-62
2022/11/19 06:38:54;;;;;;;32.60;25.77;;;;;;;1.61;100.00;100946.69;4954881;28;20022;-62
2022/11/19 06:41:20;;;;;;;32.47;25.53;;;;;;;1.58;100.00;100938.81;4956772;28;20027;-62
2022/11/19 06:43:45;;;;;;;34.30;25.93;;;;;;;1.55;100.00;100935.25;4952420;28;20435;-63
2022/11/19 06:46:12;;;;;;;29.87;25.03;;;;;;;1.52;100.00;100936.72;4956824;28;20023;-62
2022/11/19 06:48:38;;;;;;;31.97;25.00;;;;;;;1.51;100.00;100942.63;4952707;28;20053;-62
2022/11/19 06:51:04;;;;;;;33.90;26.13;;;;;;;1.40;100.00;100945.28;4956476;28;20479;-63
2022/11/19 06:53:29;;;;;;;32.37;25.17;;;;;;;1.37;100.00;100946.75;4952841;28;20034;-62
2022/11/19 06:55:59;;;;;;;34.40;26.03;;;;;;;1.36;100.00;100945.84;4957522;28;20039;-62
2022/11/19 06:58:25;;;;;;;36.20;26.87;;;;;;;1.31;100.00;100948.06;4949428;28;20038;-62
2022/11/19 07:00:50;;;;;;;36.80;26.10;;;;;;;1.29;100.00;100948.75;4957646;28;20098;-62
2022/11/19 07:03:15;;;;;;;35.10;25.93;;;;;;;1.14;100.00;100954.53;4953359;28;20045;-62
2022/11/19 07:05:41;;;;;;;33.40;25.83;;;;;;;1.15;100.00;100956.28;4950282;28;20545;-63
2022/11/19 07:08:06;;;;;;;34.70;26.27;;;;;;;1.18;100.00;100961.63;4952298;28;20037;-62
2022/11/19 07:10:32;;;;;;;34.93;26.40;;;;;;;1.21;100.00;100962.63;4951111;28;20082;-60
2022/11/19 07:12:58;;;;;;;32.50;25.53;;;;;;;1.17;100.00;100959.84;4951642;28;20059;-63
2022/11/19 07:15:23;;;;;;;35.43;26.47;;;;;;;1.15;100.00;100961.38;4962269;28;20034;-62
2022/11/19 07:17:48;;;;;;;34.80;26.50;;;;;;;1.16;100.00;100970.84;4953455;28;20581;-62
2022/11/19 07:20:14;;;;;;;36.63;26.57;;;;;;;1.09;100.00;100973.72;4952222;28;20118;-62
2022/11/19 07:22:40;;;;;;;37.00;29.27;;;;;;;1.13;100.00;100978.28;4953504;28;20035;-62
2022/11/19 07:25:06;;;;;;;35.00;26.03;;;;;;;1.11;100.00;100978.94;4951743;28;20058;-62
2022/11/19 07:27:31;;;;;;;35.67;25.97;;;;;;;1.11;100.00;100979.84;4951527;28;20487;-62
2022/11/19 07:29:56;;;;;;;34.73;26.63;;;;;;;1.06;100.00;100976.06;4952035;28;20035;-62
2022/11/19 07:32:22;;;;;;;36.77;25.33;;;;;;;0.99;100.00;100986.59;4959698;28;20479;-62
2022/11/19 07:34:47;;;;;;;36.53;26.60;;;;;;;0.99;100.00;100990.03;4956333;28;20037;-62
2022/11/19 07:37:12;;;;;;;34.40;26.57;;;;;;;1.01;100.00;100987.59;4953763;28;20090;-62
2022/11/19 07:39:37;;;;;;;34.33;25.60;;;;;;;1.03;100.00;100986.03;4955471;28;20045;-63
2022/11/19 07:44:47;;;;;;;38.27;27.47;;;;;;;1.07;100.00;100999.16;4957312;28;20414;-63
2022/11/19 07:47:12;;;;;;;36.43;25.67;;;;;;;1.06;100.00;101002.47;4953061;28;20039;-62
2022/11/19 07:49:37;;;;;;;34.90;24.57;;;;;;;1.07;100.00;101003.34;4950885;28;20023;-62
2022/11/19 07:52:03;;;;;;;32.63;24.77;;;;;;;1.10;100.00;101013.78;4953128;28;20125;-62
2022/11/19 07:54:28;;;;;;;35.47;25.50;;;;;;;1.10;100.00;101013.78;4951275;28;20031;-62
2022/11/19 07:56:53;;;;;;;33.30;25.13;;;;;;;1.13;100.00;101016.59;4951792;28;20031;-62
2022/11/19 07:59:19;;;;;;;35.40;25.57;;;;;;;1.14;100.00;101009.78;4953169;28;20035;-62
2022/11/19 08:01:44;;;;;;;33.23;24.87;;;;;;;1.17;100.00;101013.47;4959173;28;20030;-62
2022/11/19 08:04:10;;;;;;;33.10;24.83;;;;;;;1.16;100.00;101016.81;4959539;28;20289;-62
2022/11/19 08:06:35;;;;;;;36.50;24.63;;;;;;;1.17;100.00;101021.13;4954618;28;20027;-62
2022/11/19 08:09:02;;;;;;;34.30;26.33;;;;;;;1.18;100.00;101011.81;4959099;28;20112;-62
2022/11/19 08:11:28;;;;;;;33.17;25.70;;;;;;;1.17;100.00;101018.56;4956173;28;20379;-62
2022/11/19 08:13:53;;;;;;;33.53;24.43;;;;;;;1.15;100.00;101027.78;4955108;28;20085;-62
2022/11/19 08:19:08;;;;;;;33.90;24.17;;;;;;;1.14;100.00;101035.31;4950003;28;20106;-62
2022/11/19 08:21:34;;;;;;;35.08;24.92;;;;;;;1.17;100.00;101028.78;4953313;28;20535;-62
2022/11/19 08:24:00;;;;;;;31.00;24.77;;;;;;;1.18;100.00;101035.69;4950570;28;20027;-62
2022/11/19 08:26:25;;;;;;;33.43;25.17;;;;;;;1.21;100.00;101035.00;4956049;28;20070;-62
2022/11/19 08:28:51;;;;;;;35.00;24.50;;;;;;;1.11;100.00;101030.91;4950804;28;20035;-62
2022/11/19 08:31:17;;;;;;;33.17;23.93;;;;;;;1.11;100.00;101033.44;4954378;28;20026;-62
2022/11/19 08:33:42;;;;;;;33.23;24.83;;;;;;;1.13;100.00;101041.22;4950468;28;20031;-61
2022/11/19 08:36:07;;;;;;;31.47;24.47;;;;;;;1.13;100.00;101036.13;4950086;28;20496;-62
2022/11/19 08:38:32;;;;;;;33.37;24.57;;;;;;;1.14;100.00;101040.44;4952011;28;20106;-62
2022/11/19 08:43:41;;;;;;;33.73;25.57;;;;;;;1.12;100.00;101047.09;4952519;28;20045;-62
2022/11/19 08:46:07;;;;;;;33.13;24.63;;;;;;;1.16;100.00;101046.53;4958947;28;20023;-62
2022/11/19 08:48:33;;;;;;;32.27;24.60;;;;;;;1.21;100.00;101054.56;4952787;28;20027;-62
2022/11/19 08:51:05;;;;;;;32.70;24.57;;;;;;;1.23;100.00;101055.53;4950158;28;20041;-62
2022/11/19 08:53:31;;;;;;;34.23;24.90;;;;;;;1.14;100.00;101061.75;4952497;28;20027;-62
2022/11/19 08:55:56;;;;;;;30.33;23.00;;;;;;;1.18;100.00;101051.00;4950542;28;20391;-62
2022/11/19 08:58:22;;;;;;;32.10;23.93;;;;;;;1.22;100.00;101051.22;4952775;28;20019;-62
2022/11/19 09:00:48;;;;;;;32.13;24.53;;;;;;;1.20;100.00;101058.78;4949508;28;20051;-62
2022/11/19 09:03:14;;;;;;;34.03;23.40;;;;;;;1.23;100.00;101060.63;4970613;28;20083;-62
2022/11/19 09:05:39;;;;;;;33.70;24.70;;;;;;;1.25;100.00;101064.19;4950389;28;20031;-62
2022/11/19 09:08:06;;;;;;;33.03;24.60;;;;;;;1.21;100.00;101057.13;4954369;28;20027;-62
2022/11/19 09:10:31;;;;;;;30.20;24.27;;;;;;;1.24;100.00;101057.34;4952178;28;20061;-62
2022/11/19 09:12:57;;;;;;;35.13;24.60;;;;;;;1.26;100.00;101060.91;4953728;28;20071;-62
2022/11/19 09:15:22;;;;;;;33.07;23.80;;;;;;;1.26;100.00;101060.91;4950524;28;20078;-62
2022/11/19 09:17:47;;;;;;;30.83;24.10;;;;;;;1.27;100.00;101063.56;4961255;28;20126;-61
2022/11/19 09:20:13;;;;;;;34.50;25.50;;;;;;;1.25;100.00;101067.66;4953559;28;20023;-61
2022/11/19 09:22:38;;;;;;;32.00;24.87;;;;;;;1.28;100.00;101065.31;4952215;28;20023;-61
2022/11/19 09:25:04;;;;;;;32.63;24.70;;;;;;;1.27;100.00;101072.88;4951067;28;20434;-61
2022/11/19 09:27:29;;;;;;;29.30;22.50;;;;;;;1.24;100.00;101080.31;4952814;28;20656;-61
2022/11/19 09:29:55;;;;;;;32.80;23.80;;;;;;;1.25;100.00;101074.41;4952042;28;20478;-61
2022/11/19 09:32:20;;;;;;;32.17;24.20;;;;;;;1.23;100.00;101078.50;4953178;28;20030;-61
2022/11/19 09:34:45;;;;;;;32.27;24.63;;;;;;;1.23;100.00;101081.06;4952322;28;20480;-61
2022/11/19 09:37:11;;;;;;;28.23;22.43;;;;;;;1.19;100.00;101087.63;4951583;28;20475;-61
2022/11/19 09:39:36;;;;;;;27.70;21.57;;;;;;;1.14;100.00;101087.28;4952364;28;20023;-61
2022/11/19 09:42:15;;;;;;;28.13;22.47;;;;;;;1.15;100.00;101086.50;4952263;28;20472;-62
2022/11/19 09:44:52;;;;;;;28.97;22.67;;;;;;;1.15;100.00;101094.16;4954369;28;20485;-61
2022/11/19 09:47:45;;;;;;;30.43;22.57;;;;;;;1.16;100.00;101095.94;4949837;28;20051;-61
2022/11/19 09:50:14;;;;;;;29.17;23.03;;;;;;;1.12;100.00;101106.69;4955671;28;20562;-61
2022/11/19 09:52:46;;;;;;;33.77;23.83;;;;;;;1.08;100.00;101120.00;4953548;28;20030;-61
2022/11/19 09:55:17;;;;;;;33.83;23.23;;;;;;;1.10;100.00;101115.91;4958120;28;20034;-62
2022/11/19 09:57:46;;;;;;;;;;;;;;;0.99;100.00;101121.88;4954580;28;20519;-61
2022/11/19 10:00:16;;;;;;;31.60;21.53;;;;;;;0.89;100.00;101115.19;4956715;28;19921;-61
2022/11/19 10:02:41;;;;;;;35.67;23.80;;;;;;;0.97;100.00;101125.97;4955225;28;20298;-61
2022/11/19 10:05:12;;;;;;;31.03;22.43;;;;;;;0.90;100.00;101122.94;4950984;28;20106;-61
2022/11/19 10:07:55;;;;;;;32.28;22.20;;;;;;;0.91;100.00;101128.94;4951968;28;20475;-61
2022/11/19 10:10:35;;;;;;;30.17;22.80;;;;;;;0.91;100.00;101129.84;4948706;28;20488;-61
2022/11/19 10:13:16;;;;;;;33.90;23.60;;;;;;;0.89;100.00;101131.38;4949764;28;20235;-61
2022/11/19 10:15:57;;;;;;;30.83;22.05;;;;;;;0.83;100.00;101131.81;4948395;28;20058;-61
2022/11/19 10:18:28;;;;;;;31.88;22.17;;;;;;;0.74;100.00;101126.00;4948129;28;20054;-62
2022/11/19 10:21:17;;;;;;;31.80;22.53;;;;;;;0.80;100.00;101126.47;4948240;28;20555;-62
2022/11/19 10:23:53;;;;;;;32.17;22.50;;;;;;;0.86;100.00;101131.16;4947732;28;20031;-62
2022/11/19 10:26:29;;;;;;;35.57;24.10;;;;;;;0.88;100.00;101132.16;4948240;28;20047;-62
2022/11/19 10:28:56;;;;;;;33.87;24.10;;;;;;;0.94;100.00;101135.19;4947451;28;20035;-62
2022/11/19 10:31:42;;;;;;;28.83;20.87;;;;;;;0.95;100.00;101142.03;4948807;28;20428;-63
2022/11/19 10:34:27;;;;;;;36.10;25.07;;;;;;;0.98;100.00;101140.50;4949492;28;20027;-62
2022/11/19 10:37:01;;;;;;;27.67;22.10;;;;;;;0.98;100.00;101143.97;4949105;28;20042;-62
2022/11/19 10:39:40;;;;;;;29.20;21.87;;;;;;;1.00;100.00;101149.19;4949415;28;20074;-62
2022/11/19 10:42:27;;;;;;;25.00;20.00;;;;;;;0.98;100.00;101140.50;4960534;28;20031;-62
2022/11/19 10:44:58;;;;;;;24.43;19.90;;;;;;;0.98;100.00;101140.50;4952648;28;20027;-62
2022/11/19 10:47:47;;;;;;;25.27;19.17;;;;;;;0.99;100.00;101134.66;4952166;28;20055;-62
2022/11/19 10:50:17;;;;;;;26.20;19.60;;;;;;;0.99;100.00;101137.19;4956013;28;20445;-62
2022/11/19 10:52:46;;;;;;;24.77;19.17;;;;;;;0.94;100.00;101135.19;4957580;28;20537;-62
2022/11/19 10:55:32;;;;;;;25.10;18.33;;;;;;;0.94;100.00;101130.06;4951804;28;20426;-62
2022/11/19 10:58:14;;;;;;;29.63;20.07;;;;;;;0.94;100.00;101140.28;4952302;28;20038;-62
2022/11/19 11:00:41;;;;;;;27.60;20.17;;;;;;;0.92;100.00;101140.91;4951973;28;20019;-62
2022/11/19 11:03:19;;;;;;;26.60;19.87;;;;;;;0.87;100.00;101145.69;4952091;28;20019;-62
2022/11/19 11:06:02;;;;;;;23.80;18.50;;;;;;;0.87;100.00;101147.34;4951490;28;20325;-62
2022/11/19 11:08:27;;;;;;;23.93;18.20;;;;;;;0.87;100.00;101138.03;4952219;28;20479;-62
2022/11/19 11:10:53;;;;;;;27.40;19.23;;;;;;;0.87;100.00;101143.13;4951775;28;20031;-62
2022/11/19 11:16:44;;;;;;;23.60;17.93;;;;;;;0.86;100.00;101138.81;4951454;28;20085;-62
2022/11/19 11:19:13;;;;;;;21.70;17.90;;;;;;;0.87;100.00;101138.03;4950740;28;20110;-62
2022/11/19 11:21:39;;;;;;;22.00;18.53;;;;;;;0.79;100.00;101146.78;4959565;28;20035;-62
2022/11/19 11:24:06;;;;;;;23.50;18.83;;;;;;;0.75;100.00;101147.31;4975085;28;20042;-63
2022/11/19 11:26:34;;;;;;;24.57;18.80;;;;;;;0.74;100.00;101148.09;4951545;28;20486;-62
2022/11/19 11:29:07;;;;;;;22.67;17.33;;;;;;;0.76;100.00;101143.97;4959032;28;20106;-62
2022/11/19 11:31:46;;;;;;;27.20;19.63;;;;;;;0.78;100.00;101144.97;4959692;28;20117;-62
2022/11/19 11:34:33;;;;;;;27.37;20.00;;;;;;;0.83;100.00;101136.00;4954990;28;20034;-61
2022/11/19 11:37:01;;;;;;;24.70;18.40;;;;;;;0.87;100.00;101132.94;4950850;28;20089;-62
2022/11/19 11:39:30;;;;;;;22.40;17.90;;;;;;;0.90;100.00;101132.28;4956787;28;20072;-62
2022/11/19 11:41:57;;;;;;;24.97;18.30;;;;;;;0.79;100.00;101124.69;4950905;28;20031;-62
2022/11/19 11:44:26;;;;;;;23.97;19.00;;;;;;;0.81;100.00;101133.34;4951073;28;20466;-62
2022/11/19 11:46:54;;;;;;;19.73;16.03;;;;;;;0.81;100.00;101133.34;4950912;28;20464;-62